Time;durP1;ratioP1;P1;durP2;ratioP2;P2;SDS_P1;SDS_P2;PMS_P1;PMS_P2;Temp;Humidity;BMP_temperature;BMP_pressure;BME280_temperature;BME280_humidity;BME280_pressure;Samples;Min_cycle;Max_cycle;Signal;HPM_P1;HPM_P2
2022/05/24 00:01:34;;;;;;;2.97;1.93;;;22.30;99.90;;;;;;4976072;28;20220;-92
2022/05/24 00:04:10;;;;;;;3.17;2.27;;;22.30;99.90;;;;;;4972988;28;20222;-93
2022/05/24 00:06:49;;;;;;;2.53;1.60;;;22.20;99.90;;;;;;4968635;28;20230;-91
2022/05/24 00:09:23;;;;;;;2.13;1.90;;;22.50;99.90;;;;;;4971162;28;20211;-92
2022/05/24 00:12:00;;;;;;;1.60;1.50;;;22.50;99.90;;;;;;4965532;28;20239;-91
2022/05/24 00:20:22;;;;;;;2.73;1.70;;;21.80;99.90;;;;;;4964318;29;20282;-92
2022/05/24 00:22:53;;;;;;;2.50;2.30;;;21.70;99.90;;;;;;4960588;29;20215;-93
2022/05/24 00:25:25;;;;;;;3.83;2.30;;;21.80;99.90;;;;;;4961184;29;20216;-93
2022/05/24 00:27:58;;;;;;;2.23;1.70;;;21.90;99.90;;;;;;4959158;28;20203;-93
2022/05/24 00:30:31;;;;;;;1.80;1.70;;;21.90;99.90;;;;;;4961853;29;20239;-91
2022/05/24 00:33:04;;;;;;;2.17;1.83;;;22.10;99.90;;;;;;4968619;28;20215;-92
2022/05/24 00:35:35;;;;;;;2.87;1.87;;;22.10;99.90;;;;;;4967966;28;20231;-92
2022/05/24 00:38:09;;;;;;;3.37;1.90;;;21.80;99.90;;;;;;4967951;28;20250;-92
2022/05/24 00:40:52;;;;;;;1.83;1.53;;;21.90;99.90;;;;;;4963819;29;20333;-92
2022/05/24 00:49:01;;;;;;;2.37;1.93;;;22.20;99.90;;;;;;4995591;28;20246;-94
2022/05/24 00:51:49;;;;;;;3.23;1.80;;;22.30;99.90;;;;;;4989514;28;20242;-93
2022/05/24 00:54:20;;;;;;;2.60;1.70;;;22.00;99.90;;;;;;4995351;28;20190;-92
2022/05/24 00:56:58;;;;;;;2.83;1.63;;;22.40;99.90;;;;;;4994404;28;20222;-92
2022/05/24 00:59:38;;;;;;;5.17;2.20;;;22.80;99.90;;;;;;4973873;28;20195;-92
2022/05/24 01:02:15;;;;;;;3.07;1.90;;;23.40;99.90;;;;;;5159062;23;20222;-92
2022/05/24 01:04:51;;;;;;;4.70;2.00;;;23.10;99.90;;;;;;5001479;28;20229;-93
2022/05/24 01:07:26;;;;;;;2.30;1.67;;;22.10;99.90;;;;;;4988271;28;20210;-94
2022/05/24 01:10:01;;;;;;;2.17;1.70;;;22.40;99.90;;;;;;4983739;28;20688;-94
2022/05/24 01:12:34;;;;;;;4.03;1.77;;;22.70;99.90;;;;;;4983373;28;20207;-92
2022/05/24 01:15:08;;;;;;;6.43;2.10;;;22.90;99.90;;;;;;4983301;28;20211;-93
2022/05/24 01:17:40;;;;;;;2.50;1.67;;;23.60;99.90;;;;;;4988149;28;20191;-93
2022/05/24 01:20:22;;;;;;;3.53;1.80;;;23.60;99.90;;;;;;4985518;28;20257;-93
2022/05/24 01:26:23;;;;;;;2.13;1.60;;;24.50;99.90;;;;;;4991269;28;20206;-92
2022/05/24 01:28:58;;;;;;;2.17;1.70;;;24.00;99.90;;;;;;4988144;28;20621;-93
2022/05/24 01:36:09;;;;;;;4.20;1.93;;;23.60;99.90;;;;;;4985179;28;20277;-93
2022/05/24 01:37:14;;;;;;;2.00;1.50;;;22.90;99.90;;;;;;4983753;28;20218;-92
2022/05/24 01:39:51;;;;;;;4.40;1.57;;;22.80;99.90;;;;;;4989213;28;20206;-93
2022/05/24 01:42:23;;;;;;;1.80;1.50;;;23.20;99.90;;;;;;4983047;28;20235;-92
2022/05/24 01:45:03;;;;;;;2.60;1.57;;;23.60;99.90;;;;;;4982450;28;20203;-93
2022/05/24 01:47:37;;;;;;;2.00;1.50;;;23.70;99.90;;;;;;4988294;28;20632;-92
2022/05/24 01:50:13;;;;;;;5.87;1.60;;;23.70;99.90;;;;;;4985195;28;20222;-93
2022/05/24 01:52:49;;;;;;;2.20;1.20;;;23.90;99.90;;;;;;4983074;28;20214;-91
2022/05/24 01:55:25;;;;;;;3.10;1.20;;;23.40;99.90;;;;;;4995264;28;20215;-92
2022/05/24 01:58:01;;;;;;;2.40;1.23;;;23.30;99.90;;;;;;4986343;28;20237;-93
2022/05/24 02:00:42;;;;;;;1.40;1.30;;;23.20;99.90;;;;;;4996932;28;20261;-92
2022/05/24 02:03:14;;;;;;;1.57;1.20;;;23.10;99.90;;;;;;4997244;28;20219;-92
2022/05/24 02:05:46;;;;;;;1.20;1.07;;;22.70;99.90;;;;;;4991042;28;20241;-93
2022/05/24 02:08:20;;;;;;;1.03;0.93;;;22.30;99.90;;;;;;4986479;28;20230;-92
2022/05/24 02:10:58;;;;;;;1.47;1.10;;;21.90;99.90;;;;;;4995002;28;20214;-92
2022/05/24 02:13:36;;;;;;;5.63;1.33;;;21.40;99.90;;;;;;4987226;28;20254;-92
2022/05/24 02:16:16;;;;;;;1.73;1.03;;;20.50;99.90;;;;;;4985800;28;20221;-92
2022/05/24 02:18:59;;;;;;;1.33;1.00;;;20.00;99.90;;;;;;4989195;28;20226;-92
2022/05/24 02:27:24;;;;;;;1.03;0.73;;;18.70;99.90;;;;;;4994591;28;20278;-93
2022/05/24 02:30:00;;;;;;;2.03;0.90;;;18.60;99.90;;;;;;4994017;28;20203;-92
2022/05/24 02:32:39;;;;;;;0.90;0.80;;;18.60;99.90;;;;;;4992716;28;20210;-92
2022/05/24 02:35:11;;;;;;;3.23;0.97;;;18.30;99.90;;;;;;4992086;28;20203;-92
2022/05/24 02:37:51;;;;;;;1.37;0.90;;;18.00;99.90;;;;;;4993771;28;20218;-92
2022/05/24 02:45:47;;;;;;;1.27;0.83;;;17.30;99.90;;;;;;4991548;28;20233;-91
2022/05/24 02:53:34;;;;;;;1.43;0.97;;;17.00;99.90;;;;;;4997465;28;20233;-91
2022/05/24 02:56:07;;;;;;;0.80;0.80;;;16.90;99.90;;;;;;4997625;28;20201;-91
2022/05/24 02:58:39;;;;;;;1.87;0.90;;;16.80;99.90;;;;;;4998460;28;20198;-91
2022/05/24 03:01:18;;;;;;;1.47;0.70;;;16.80;99.90;;;;;;4997503;28;20223;-91
2022/05/24 03:03:50;;;;;;;2.33;0.60;;;16.70;99.90;;;;;;4996525;28;20227;-90
2022/05/24 03:06:23;;;;;;;0.80;0.80;;;16.60;99.90;;;;;;4999303;28;20203;-92
2022/05/24 03:14:46;;;;;;;0.60;0.60;;;16.50;99.90;;;;;;4985389;28;20246;-91
2022/05/24 03:20:30;;;;;;;1.40;0.40;;;16.40;99.90;;;;;;4985593;28;20218;-91
2022/05/24 03:23:02;;;;;;;0.60;0.60;;;16.20;99.90;;;;;;4979801;28;20270;-91
2022/05/24 03:25:37;;;;;;;0.90;0.60;;;16.20;99.90;;;;;;4983572;28;20235;-92
2022/05/24 03:28:21;;;;;;;0.40;0.30;;;16.10;99.90;;;;;;4992175;28;20207;-92
2022/05/24 03:30:52;;;;;;;1.53;0.67;;;16.00;99.90;;;;;;4983918;28;20206;-92
2022/05/24 03:33:24;;;;;;;0.67;0.37;;;15.90;99.90;;;;;;4983637;28;20234;-92
2022/05/24 03:35:56;;;;;;;1.03;0.60;;;15.90;99.90;;;;;;4987386;28;20207;-92
2022/05/24 03:38:28;;;;;;;0.77;0.50;;;15.90;99.90;;;;;;4979616;28;20211;-91
2022/05/24 03:41:02;;;;;;;0.80;0.67;;;15.80;99.90;;;;;;4978213;28;20227;-92
2022/05/24 03:43:34;;;;;;;0.60;0.50;;;15.70;99.90;;;;;;4979763;28;20246;-91
2022/05/24 03:46:07;;;;;;;0.40;0.40;;;15.60;99.90;;;;;;4978433;28;20306;-91
2022/05/24 03:48:38;;;;;;;1.07;0.70;;;15.40;99.90;;;;;;4979373;28;20217;-92
2022/05/24 03:51:10;;;;;;;1.33;0.60;;;15.40;99.90;;;;;;4981968;28;20345;-91
2022/05/24 03:53:42;;;;;;;1.80;0.40;;;15.30;99.90;;;;;;4984495;28;20228;-91
2022/05/24 03:56:16;;;;;;;2.53;0.70;;;15.20;99.90;;;;;;4979738;28;20575;-92
2022/05/24 03:58:47;;;;;;;1.50;0.50;;;15.10;99.90;;;;;;4979020;28;20269;-91
2022/05/24 04:01:27;;;;;;;1.23;0.50;;;15.20;99.90;;;;;;4982013;28;20555;-91
2022/05/24 04:04:02;;;;;;;2.10;0.53;;;15.10;99.90;;;;;;4982217;28;20270;-91
2022/05/24 04:06:38;;;;;;;0.67;0.40;;;15.00;99.90;;;;;;5004598;23;20271;-93
2022/05/24 04:09:10;;;;;;;0.77;0.50;;;15.00;99.90;;;;;;4978157;28;20214;-92
2022/05/24 04:11:44;;;;;;;0.77;0.60;;;15.00;99.90;;;;;;4978412;28;20217;-92
2022/05/24 04:14:15;;;;;;;1.03;0.50;;;14.90;99.90;;;;;;4979190;28;20226;-92
2022/05/24 04:16:46;;;;;;;1.33;0.60;;;14.80;99.90;;;;;;4983730;28;20205;-92
2022/05/24 04:19:18;;;;;;;0.77;0.60;;;14.70;99.90;;;;;;4992742;28;20191;-92
2022/05/24 04:21:52;;;;;;;1.00;0.60;;;14.70;99.90;;;;;;4993000;28;20235;-92
2022/05/24 04:24:26;;;;;;;1.10;0.53;;;14.70;99.90;;;;;;4992424;28;20206;-91
2022/05/24 04:27:00;;;;;;;0.97;0.70;;;14.50;99.90;;;;;;4989373;28;20238;-92
2022/05/24 04:29:35;;;;;;;1.10;0.50;;;14.50;99.90;;;;;;4991126;28;20225;-93
2022/05/24 04:32:08;;;;;;;1.23;0.60;;;14.50;99.90;;;;;;4991436;28;20210;-92
2022/05/24 04:34:47;;;;;;;2.00;0.50;;;14.50;99.90;;;;;;4992638;28;20283;-92
2022/05/24 04:37:20;;;;;;;1.50;0.50;;;14.50;99.90;;;;;;4994932;28;20214;-92
2022/05/24 04:39:52;;;;;;;4.43;0.70;;;14.50;99.90;;;;;;5163339;23;20250;-92
2022/05/24 04:42:29;;;;;;;1.57;0.70;;;14.40;99.90;;;;;;5009416;28;20229;-92
2022/05/24 04:45:06;;;;;;;2.27;0.70;;;14.30;99.90;;;;;;5009619;28;20206;-92
2022/05/24 04:47:37;;;;;;;1.40;0.60;;;14.20;99.90;;;;;;5008261;28;20202;-91
2022/05/24 04:50:13;;;;;;;1.50;0.73;;;14.20;99.90;;;;;;5009492;28;20199;-91
2022/05/24 04:52:49;;;;;;;1.10;0.60;;;14.10;99.90;;;;;;5007275;28;20206;-92
2022/05/24 04:55:26;;;;;;;0.73;0.60;;;14.20;99.90;;;;;;5006603;28;20257;-92
2022/05/24 04:58:00;;;;;;;0.60;0.60;;;14.10;99.90;;;;;;5011073;28;20205;-91
2022/05/24 05:00:32;;;;;;;5.00;0.80;;;14.10;99.90;;;;;;5008608;28;20237;-92
2022/05/24 05:03:10;;;;;;;0.90;0.77;;;14.10;99.90;;;;;;5006691;28;20245;-91
2022/05/24 05:05:43;;;;;;;1.97;1.07;;;14.10;99.90;;;;;;4992969;28;20211;-92
2022/05/24 05:08:15;;;;;;;1.20;0.70;;;14.10;99.90;;;;;;4990379;28;20266;-91
2022/05/24 05:10:50;;;;;;;0.90;0.63;;;14.20;99.90;;;;;;4990445;28;20214;-92
2022/05/24 05:13:27;;;;;;;2.73;0.70;;;14.20;99.90;;;;;;4994807;28;20259;-91
2022/05/24 05:16:00;;;;;;;1.43;0.60;;;14.10;99.90;;;;;;5001625;28;20205;-92
2022/05/24 05:18:32;;;;;;;1.40;0.87;;;14.00;99.90;;;;;;5000721;28;20222;-92
2022/05/24 05:34:57;;;;;;;0.90;0.63;;;13.90;99.90;;;;;;5628455;22;15461136;-92
2022/05/24 05:37:30;;;;;;;0.77;0.60;;;13.80;99.90;;;;;;6236321;23;20164;-91
2022/05/24 05:40:05;;;;;;;3.03;0.80;;;13.70;99.90;;;;;;6240821;23;20224;-92
2022/05/24 05:42:38;;;;;;;1.80;0.77;;;13.60;99.90;;;;;;6230184;23;20196;-91
2022/05/24 05:45:11;;;;;;;2.03;0.57;;;13.60;99.90;;;;;;6240325;22;20183;-90
2022/05/24 05:47:45;;;;;;;2.33;0.70;;;13.60;99.90;;;;;;6240425;23;20176;-91
2022/05/24 05:50:19;;;;;;;1.50;0.80;;;13.60;99.90;;;;;;6231188;23;20167;-92
2022/05/24 05:52:51;;;;;;;1.63;0.60;;;13.50;99.90;;;;;;6229851;23;20635;-92
2022/05/24 05:55:24;;;;;;;1.67;0.80;;;13.60;99.90;;;;;;6231546;23;20226;-91
2022/05/24 05:57:55;;;;;;;3.60;0.77;;;13.50;99.90;;;;;;6234446;23;20280;-93
2022/05/24 06:00:26;;;;;;;1.97;0.60;;;13.50;99.90;;;;;;6231456;23;20187;-91
2022/05/24 06:02:58;;;;;;;1.97;0.60;;;13.40;99.90;;;;;;6230829;23;20286;-91
2022/05/24 06:05:32;;;;;;;1.43;0.70;;;13.40;99.90;;;;;;6234456;23;20179;-91
2022/05/24 06:08:04;;;;;;;3.03;0.70;;;13.40;99.90;;;;;;6236939;23;20716;-90
2022/05/24 06:10:36;;;;;;;0.50;0.50;;;13.40;99.90;;;;;;6236472;23;20180;-91
2022/05/24 06:13:08;;;;;;;1.50;0.60;;;13.30;99.90;;;;;;6233325;23;20176;-91
2022/05/24 06:15:39;;;;;;;1.60;1.13;;;13.30;99.90;;;;;;6229586;23;20180;-92
2022/05/24 06:18:11;;;;;;;1.57;0.80;;;13.40;99.90;;;;;;6229729;23;20206;-91
2022/05/24 06:20:46;;;;;;;1.20;0.70;;;13.30;99.90;;;;;;6229644;23;20180;-92
2022/05/24 06:23:19;;;;;;;0.80;0.70;;;13.40;99.90;;;;;;6231319;23;20207;-91
2022/05/24 06:25:51;;;;;;;0.77;0.70;;;13.40;99.90;;;;;;6229081;23;20184;-92
2022/05/24 06:28:23;;;;;;;1.00;0.70;;;13.40;99.90;;;;;;6228999;23;20295;-91
2022/05/24 06:30:54;;;;;;;1.33;0.60;;;13.40;99.90;;;;;;6231903;23;20630;-91
2022/05/24 06:33:25;;;;;;;2.80;0.70;;;13.40;99.90;;;;;;6226909;23;20635;-92
2022/05/24 06:36:00;;;;;;;3.10;0.80;;;13.40;99.90;;;;;;6221873;23;20631;-92
2022/05/24 06:38:32;;;;;;;1.03;0.80;;;13.40;99.90;;;;;;6221642;23;20641;-92
2022/05/24 06:41:04;;;;;;;1.57;0.60;;;13.30;99.90;;;;;;6222509;23;20183;-91
2022/05/24 06:43:36;;;;;;;0.90;0.80;;;13.30;99.90;;;;;;6223899;23;20266;-91
2022/05/24 06:46:08;;;;;;;1.37;0.80;;;13.20;99.90;;;;;;6224155;23;20224;-91
2022/05/24 06:48:41;;;;;;;1.67;0.83;;;13.30;99.90;;;;;;6221909;23;20184;-91
2022/05/24 06:51:15;;;;;;;0.90;0.70;;;13.30;99.90;;;;;;6221851;23;20625;-90
2022/05/24 06:53:49;;;;;;;1.87;0.90;;;13.30;99.90;;;;;;6223967;23;20168;-90
2022/05/24 06:56:20;;;;;;;1.33;0.80;;;13.20;99.90;;;;;;6225159;23;20179;-91
2022/05/24 07:02:24;;;;;;;2.00;0.97;;;13.20;99.90;;;;;;6227941;23;20240;-91
2022/05/24 07:04:33;;;;;;;1.93;0.87;;;13.10;99.90;;;;;;6225946;23;20272;-90
2022/05/24 07:07:07;;;;;;;1.53;0.67;;;13.00;99.90;;;;;;6226636;23;20237;-91
2022/05/24 07:09:40;;;;;;;6.00;1.03;;;13.00;99.90;;;;;;6223198;23;20176;-90
2022/05/24 07:12:12;;;;;;;2.70;0.77;;;12.90;99.90;;;;;;6225301;23;20187;-91
2022/05/24 07:14:43;;;;;;;2.63;0.93;;;12.90;99.90;;;;;;6224496;23;20192;-91
2022/05/24 07:17:15;;;;;;;2.60;1.00;;;12.90;99.90;;;;;;6225474;23;20161;-90
2022/05/24 07:19:47;;;;;;;1.47;0.83;;;12.80;99.90;;;;;;6223269;23;20242;-91
2022/05/24 07:22:21;;;;;;;2.37;1.03;;;12.80;99.90;;;;;;6221723;23;20180;-91
2022/05/24 07:24:52;;;;;;;1.30;0.90;;;12.70;99.90;;;;;;6226408;22;20195;-91
2022/05/24 07:27:25;;;;;;;3.93;0.73;;;12.70;99.90;;;;;;6231667;23;20168;-91
2022/05/24 07:29:56;;;;;;;1.07;0.80;;;12.60;99.90;;;;;;6240724;22;20182;-91
2022/05/24 07:32:27;;;;;;;4.43;1.03;;;12.70;99.90;;;;;;6242821;22;20195;-90
2022/05/24 07:34:59;;;;;;;1.43;0.90;;;12.50;99.90;;;;;;6240712;22;20219;-91
2022/05/24 07:37:38;;;;;;;2.33;0.90;;;12.50;99.90;;;;;;6241073;22;20164;-91
2022/05/24 07:46:00;;;;;;;3.23;1.00;;;12.30;99.90;;;;;;6234565;23;20176;-91
2022/05/24 07:48:38;;;;;;;2.13;1.00;;;12.30;99.90;;;;;;6227956;23;20547;-91
2022/05/24 07:51:09;;;;;;;2.43;0.80;;;12.20;99.90;;;;;;6226476;23;20634;-90
2022/05/24 07:53:43;;;;;;;1.90;0.90;;;12.10;99.90;;;;;;6230654;23;20177;-91
2022/05/24 07:56:18;;;;;;;3.97;1.10;;;12.00;99.90;;;;;;6225952;23;20220;-91
2022/05/24 07:58:54;;;;;;;3.97;1.07;;;11.80;99.90;;;;;;6222224;23;20180;-92
2022/05/24 08:01:27;;;;;;;3.03;1.00;;;11.70;99.90;;;;;;6221092;23;20610;-93
2022/05/24 08:03:59;;;;;;;1.17;0.83;;;11.60;99.90;;;;;;6224016;23;20305;-91
2022/05/24 08:06:30;;;;;;;3.17;1.00;;;11.50;99.90;;;;;;6226925;23;20173;-88
2022/05/24 08:09:05;;;;;;;2.13;1.00;;;11.40;99.90;;;;;;6240991;22;20195;-89
2022/05/24 08:11:36;;;;;;;3.93;0.90;;;11.40;99.90;;;;;;6241197;22;20168;-90
2022/05/24 08:14:07;;;;;;;2.30;1.10;;;11.40;99.90;;;;;;6241188;22;20187;-88
2022/05/24 08:16:38;;;;;;;5.40;1.00;;;11.40;99.90;;;;;;6235282;23;20204;-90
2022/05/24 08:19:10;;;;;;;1.27;0.90;;;11.50;99.90;;;;;;6232977;23;20203;-92
2022/05/24 08:21:43;;;;;;;3.60;1.00;;;11.60;99.90;;;;;;6231115;23;20180;-91
2022/05/24 08:24:17;;;;;;;2.80;0.93;;;11.60;99.90;;;;;;6230531;23;20204;-90
2022/05/24 08:26:49;;;;;;;4.17;1.17;;;11.70;99.90;;;;;;6224219;23;20167;-91
2022/05/24 08:29:20;;;;;;;4.17;0.90;;;11.80;99.90;;;;;;6227046;23;20255;-89
2022/05/24 08:31:51;;;;;;;5.27;0.90;;;11.80;99.90;;;;;;6227312;23;20180;-91
2022/05/24 08:34:23;;;;;;;2.97;0.90;;;11.80;99.90;;;;;;6228316;23;20179;-91
2022/05/24 08:36:54;;;;;;;4.87;0.97;;;11.70;99.90;;;;;;6251919;22;20362;-91
2022/05/24 08:39:28;;;;;;;1.83;1.00;;;11.80;99.90;;;;;;6282885;22;20210;-92
2022/05/24 08:42:10;;;;;;;2.90;1.30;;;11.70;99.90;;;;;;6287882;22;20248;-90
2022/05/24 08:50:34;;;;;;;4.57;1.07;;;11.60;99.90;;;;;;6285266;22;20182;-91
2022/05/24 08:53:08;;;;;;;4.67;1.37;;;11.60;99.90;;;;;;6281499;22;20170;-91
2022/05/24 08:55:46;;;;;;;4.73;1.20;;;11.50;99.90;;;;;;6280968;22;20250;-91
2022/05/24 08:58:32;;;;;;;4.40;1.27;;;11.60;99.90;;;;;;6282826;22;20174;-92
2022/05/24 09:01:06;;;;;;;4.13;0.93;;;11.60;99.90;;;;;;6285738;22;20175;-91
2022/05/24 09:03:38;;;;;;;1.70;0.80;;;11.50;99.90;;;;;;6286063;22;20209;-92
2022/05/24 09:06:15;;;;;;;2.97;0.97;;;11.40;99.90;;;;;;6294404;22;20235;-92
2022/05/24 09:09:01;;;;;;;6.83;1.30;;;11.40;99.90;;;;;;6302844;22;20174;-91
2022/05/24 09:11:47;;;;;;;3.57;0.87;;;11.20;99.90;;;;;;6301718;22;20204;-91
2022/05/24 09:14:30;;;;;;;3.37;1.00;;;11.10;99.90;;;;;;6301253;22;20163;-89
2022/05/24 09:17:13;;;;;;;2.97;1.20;;;11.10;99.90;;;;;;6299667;22;20182;-91
2022/05/24 09:19:44;;;;;;;4.17;1.27;;;11.00;99.90;;;;;;6299853;22;20171;-91
2022/05/24 09:22:16;;;;;;;2.40;1.13;;;11.00;99.90;;;;;;6300410;22;20186;-91
2022/05/24 09:24:50;;;;;;;3.50;1.30;;;10.90;99.90;;;;;;6299640;22;20234;-90
2022/05/24 09:27:25;;;;;;;2.30;0.90;;;10.90;99.90;;;;;;6299059;22;20179;-91
2022/05/24 09:29:59;;;;;;;3.30;1.00;;;10.90;99.90;;;;;;6286662;22;20699;-91
2022/05/24 09:32:37;;;;;;;3.60;1.13;;;10.90;99.90;;;;;;6285435;22;20232;-92
2022/05/24 09:35:27;;;;;;;5.23;1.20;;;10.90;99.90;;;;;;6286096;22;20175;-91
2022/05/24 09:38:14;;;;;;;2.70;0.93;;;10.90;99.90;;;;;;6286885;22;20170;-92
2022/05/24 09:40:52;;;;;;;7.33;1.40;;;10.80;99.90;;;;;;6282993;22;20217;-92
2022/05/24 09:43:40;;;;;;;4.77;1.17;;;10.80;99.90;;;;;;6301557;22;20225;-90
2022/05/24 09:46:14;;;;;;;2.60;1.07;;;10.80;99.90;;;;;;6300620;22;20167;-92
2022/05/24 09:48:56;;;;;;;4.73;1.20;;;10.90;99.90;;;;;;6289650;22;20636;-92
2022/05/24 09:51:37;;;;;;;2.20;1.00;;;10.90;99.90;;;;;;6286203;22;20179;-92
2022/05/24 09:54:15;;;;;;;3.47;1.23;;;10.80;99.90;;;;;;6283649;22;20688;-92
2022/05/24 09:57:03;;;;;;;5.10;1.13;;;10.80;99.90;;;;;;6282345;22;20175;-92
2022/05/24 09:59:39;;;;;;;3.23;1.10;;;10.70;99.90;;;;;;6282596;22;20235;-92
2022/05/24 10:02:26;;;;;;;4.97;1.20;;;10.60;99.90;;;;;;6281710;22;20194;-92
2022/05/24 10:04:58;;;;;;;3.57;1.03;;;10.60;99.90;;;;;;6281086;22;20202;-92
2022/05/24 10:07:32;;;;;;;4.23;1.10;;;10.60;99.90;;;;;;6280958;22;20182;-92
2022/05/24 10:10:12;;;;;;;7.60;1.30;;;10.60;99.90;;;;;;6285095;22;20167;-92
2022/05/24 10:12:57;;;;;;;3.97;1.23;;;10.50;99.90;;;;;;6286609;22;20531;-92
2022/05/24 10:15:37;;;;;;;5.63;1.43;;;10.50;99.90;;;;;;6287482;22;20167;-92
2022/05/24 10:18:26;;;;;;;3.63;1.20;;;10.50;99.90;;;;;;6288843;22;20175;-91
2022/05/24 10:21:09;;;;;;;3.43;0.90;;;10.50;99.90;;;;;;6264439;22;20230;-91
2022/05/24 10:23:49;;;;;;;3.23;1.00;;;10.40;99.90;;;;;;6291830;22;20239;-92
2022/05/24 10:26:30;;;;;;;5.30;1.20;;;10.40;99.90;;;;;;6291130;22;20170;-91
2022/05/24 10:29:07;;;;;;;2.67;0.93;;;10.40;99.90;;;;;;6274333;22;20209;-91
2022/05/24 10:31:47;;;;;;;5.77;1.20;;;10.40;99.90;;;;;;6301946;22;20167;-92
2022/05/24 10:40:27;;;;;;;2.33;1.00;;;10.40;99.90;;;;;;6303545;22;20167;-92
2022/05/24 10:43:17;;;;;;;2.27;1.10;;;10.30;99.90;;;;;;6304107;22;20226;-92
2022/05/24 10:45:52;;;;;;;6.13;0.90;;;10.30;99.90;;;;;;6303704;22;20195;-92
2022/05/24 10:48:37;;;;;;;4.80;1.10;;;10.20;99.90;;;;;;6288874;22;20175;-91
2022/05/24 10:51:15;;;;;;;4.87;1.43;;;10.20;99.90;;;;;;6285576;22;20179;-92
2022/05/24 10:53:52;;;;;;;4.00;1.10;;;10.20;99.90;;;;;;6285749;22;20171;-92
2022/05/24 10:56:37;;;;;;;4.40;1.33;;;10.30;99.90;;;;;;6259581;22;20205;-91
2022/05/24 10:59:20;;;;;;;2.40;1.00;;;10.30;99.90;;;;;;6286660;22;20175;-93
2022/05/24 11:01:57;;;;;;;1.90;0.90;;;10.20;99.90;;;;;;6289381;22;20225;-92
2022/05/24 11:04:42;;;;;;;3.93;1.30;;;10.10;99.90;;;;;;6285640;22;20224;-92
2022/05/24 11:07:16;;;;;;;1.80;1.07;;;10.10;99.90;;;;;;6287784;22;20250;-92
2022/05/24 11:09:57;;;;;;;3.23;1.17;;;10.10;99.90;;;;;;6285973;22;20182;-92
2022/05/24 11:12:37;;;;;;;2.70;1.07;;;10.20;99.90;;;;;;6285824;22;20576;-92
2022/05/24 11:15:17;;;;;;;6.23;0.93;;;10.20;99.90;;;;;;6284175;22;20205;-92
2022/05/24 11:17:48;;;;;;;3.73;1.17;;;10.20;99.90;;;;;;6284288;22;20179;-92
2022/05/24 11:20:28;;;;;;;4.83;1.20;;;10.20;99.90;;;;;;6256498;22;20557;-92
2022/05/24 11:23:08;;;;;;;3.90;1.10;;;10.20;99.90;;;;;;6283899;22;20479;-91
2022/05/24 11:25:42;;;;;;;4.63;1.20;;;10.20;99.90;;;;;;6282493;22;20187;-91
2022/05/24 11:28:27;;;;;;;3.37;0.90;;;10.20;99.90;;;;;;6284644;22;20225;-92
2022/05/24 11:31:31;;;;;;;1.60;1.00;;;10.20;99.90;;;;;;6255641;22;20261;-94
2022/05/24 11:34:04;;;;;;;4.17;1.20;;;10.20;99.90;;;;;;6284221;22;20254;-92
2022/05/24 11:36:44;;;;;;;3.50;1.60;;;10.20;99.90;;;;;;6284813;22;20236;-92
2022/05/24 11:39:28;;;;;;;5.03;1.37;;;10.30;99.90;;;;;;6284425;22;20175;-92
2022/05/24 11:42:45;;;;;;;4.30;1.20;;;10.30;99.90;;;;;;6283701;22;20189;-92
2022/05/24 11:45:56;;;;;;;2.90;1.03;;;10.30;99.90;;;;;;6258825;22;20209;-92
2022/05/24 11:48:49;;;;;;;5.17;1.10;;;10.20;99.90;;;;;;6283396;22;20225;-92
2022/05/24 11:51:44;;;;;;;3.70;1.00;;;10.10;99.90;;;;;;6284005;22;20230;-92
2022/05/24 11:54:57;;;;;;;5.23;1.30;;;10.20;99.90;;;;;;6295607;22;20166;-92
2022/05/24 11:57:42;;;;;;;2.73;1.00;;;10.10;99.90;;;;;;6291903;22;20179;-92
2022/05/24 12:00:15;;;;;;;6.83;1.17;;;10.10;99.90;;;;;;6292799;22;20198;-92
2022/05/24 12:09:14;;;;;;;2.53;1.30;;;10.10;99.90;;;;;;6283219;22;20183;-92
2022/05/24 12:11:45;;;;;;;7.53;1.40;;;10.10;99.90;;;;;;6281718;22;20266;-92
2022/05/24 12:14:35;;;;;;;4.57;1.33;;;10.10;99.90;;;;;;6283059;22;20183;-92
2022/05/24 12:17:15;;;;;;;4.83;1.20;;;10.20;99.90;;;;;;6256745;22;20183;-92
2022/05/24 12:19:50;;;;;;;4.13;1.00;;;10.20;99.90;;;;;;6282264;22;20729;-90
2022/05/24 12:22:26;;;;;;;3.80;1.13;;;10.20;99.90;;;;;;6286204;22;20174;-92
2022/05/24 12:25:03;;;;;;;5.87;1.17;;;10.20;99.90;;;;;;6287029;22;20173;-91
2022/05/24 12:27:54;;;;;;;4.43;1.10;;;10.10;99.90;;;;;;6257401;22;20166;-92
2022/05/24 12:30:39;;;;;;;5.03;1.70;;;10.10;99.90;;;;;;6254700;22;20183;-92
2022/05/24 12:33:27;;;;;;;5.90;1.30;;;10.10;99.90;;;;;;6282037;22;20648;-89
2022/05/24 12:36:10;;;;;;;3.70;1.00;;;10.10;99.90;;;;;;6285052;22;20170;-89
2022/05/24 12:38:41;;;;;;;3.90;1.20;;;10.10;99.90;;;;;;6290882;22;20174;-91
2022/05/24 12:41:30;;;;;;;4.10;1.20;;;10.10;99.90;;;;;;6283322;22;20241;-90
2022/05/24 12:44:05;;;;;;;5.03;1.20;;;10.10;99.90;;;;;;6281143;22;20254;-90
2022/05/24 12:46:52;;;;;;;3.37;1.37;;;10.10;99.90;;;;;;6281312;22;20632;-90
2022/05/24 12:49:25;;;;;;;2.63;1.10;;;10.10;99.90;;;;;;6282280;22;20205;-90
2022/05/24 12:52:12;;;;;;;5.27;0.97;;;10.10;99.90;;;;;;6281626;22;20528;-91
2022/05/24 12:54:49;;;;;;;3.90;1.40;;;10.20;99.90;;;;;;6282254;22;20481;-90
2022/05/24 12:57:25;;;;;;;2.90;1.47;;;10.20;99.90;;;;;;6286505;22;20178;-91
2022/05/24 12:59:59;;;;;;;2.00;1.10;;;10.30;99.90;;;;;;6285279;22;20698;-90
2022/05/24 13:02:37;;;;;;;3.80;1.30;;;10.20;99.90;;;;;;6284557;22;20247;-90
2022/05/24 13:05:19;;;;;;;6.43;1.23;;;10.30;99.90;;;;;;6286700;22;20490;-91
2022/05/24 13:07:59;;;;;;;2.17;1.00;;;10.30;99.90;;;;;;6284392;22;20171;-90
2022/05/24 13:10:32;;;;;;;4.37;1.20;;;10.40;99.90;;;;;;6284098;22;20601;-90
2022/05/24 13:13:09;;;;;;;3.17;1.40;;;10.40;99.90;;;;;;6282688;22;20175;-90
2022/05/24 13:15:44;;;;;;;8.43;1.27;;;10.40;99.90;;;;;;6255016;22;20178;-91
2022/05/24 13:18:18;;;;;;;5.53;1.40;;;10.30;99.90;;;;;;6293775;22;20178;-90
2022/05/24 13:20:52;;;;;;;4.47;1.40;;;10.40;99.90;;;;;;6286175;22;20625;-91
2022/05/24 13:23:27;;;;;;;2.83;1.40;;;10.40;99.90;;;;;;6283750;22;20175;-91
2022/05/24 13:26:00;;;;;;;4.63;1.33;;;10.40;99.90;;;;;;6287924;22;20244;-91
2022/05/24 13:28:41;;;;;;;4.83;1.97;;;10.50;99.90;;;;;;6291421;22;20167;-89
2022/05/24 13:34:15;;;;;;;3.37;1.50;;;10.50;99.90;;;;;;6302769;22;20205;-90
2022/05/24 13:36:48;;;;;;;3.77;1.40;;;10.50;99.90;;;;;;6298337;22;20175;-91
2022/05/24 13:39:23;;;;;;;6.43;1.10;;;10.60;99.90;;;;;;6294726;22;20189;-91
2022/05/24 13:42:02;;;;;;;5.50;1.50;;;10.50;99.90;;;;;;6292889;22;20171;-91
2022/05/24 13:45:10;;;;;;;6.97;1.40;;;10.50;99.90;;;;;;6288155;22;20175;-92
2022/05/24 13:47:42;;;;;;;4.20;1.10;;;10.50;99.90;;;;;;6269586;22;20202;-91
2022/05/24 13:50:25;;;;;;;6.93;1.10;;;10.50;99.90;;;;;;6285683;22;20179;-92
2022/05/24 13:52:59;;;;;;;6.70;1.67;;;10.50;99.90;;;;;;6287059;22;20178;-91
2022/05/24 13:55:32;;;;;;;5.27;1.17;;;10.50;99.90;;;;;;6257592;22;20170;-91
2022/05/24 13:58:08;;;;;;;5.37;1.20;;;10.60;99.90;;;;;;6283151;22;20182;-92
2022/05/24 14:00:45;;;;;;;4.73;1.30;;;10.80;99.90;;;;;;6285319;22;20202;-92
2022/05/24 14:03:23;;;;;;;3.47;1.10;;;10.90;99.90;;;;;;6285606;22;20178;-92
2022/05/24 14:06:08;;;;;;;4.53;1.40;;;11.00;99.90;;;;;;6301966;22;20171;-92
2022/05/24 14:08:49;;;;;;;7.47;1.37;;;10.90;99.90;;;;;;6300145;22;20189;-92
2022/05/24 14:11:22;;;;;;;2.80;0.97;;;11.10;99.90;;;;;;6265304;22;20263;-92
2022/05/24 14:13:54;;;;;;;4.73;1.40;;;11.20;99.90;;;;;;6284134;22;20255;-92
2022/05/24 14:16:29;;;;;;;2.57;1.07;;;11.10;99.90;;;;;;6284078;22;20221;-92
2022/05/24 14:19:03;;;;;;;2.53;0.93;;;11.20;99.90;;;;;;6283977;22;20187;-92
2022/05/24 14:21:34;;;;;;;4.50;1.23;;;11.40;99.90;;;;;;6282729;22;20175;-92
2022/05/24 14:24:12;;;;;;;3.93;1.00;;;11.50;99.90;;;;;;6260965;22;20614;-92
2022/05/24 14:26:46;;;;;;;5.20;1.10;;;11.60;99.90;;;;;;6283396;22;20187;-92
2022/05/24 14:29:18;;;;;;;2.70;1.40;;;11.70;99.90;;;;;;6282295;22;20645;-91
2022/05/24 14:31:53;;;;;;;4.30;1.10;;;11.60;99.90;;;;;;6283821;22;20190;-92
2022/05/24 14:34:28;;;;;;;3.77;1.20;;;11.60;99.90;;;;;;6287050;22;20453;-92
2022/05/24 14:36:59;;;;;;;2.30;1.30;;;11.70;99.90;;;;;;6286341;22;20167;-91
2022/05/24 14:39:30;;;;;;;6.80;1.60;;;11.90;99.90;;;;;;6284210;22;20221;-93
2022/05/24 14:42:03;;;;;;;3.23;1.27;;;11.80;99.90;;;;;;6259318;22;20175;-90
2022/05/24 14:44:36;;;;;;;3.40;1.03;;;12.00;99.90;;;;;;6287243;22;20178;-90
2022/05/24 14:47:14;;;;;;;3.80;1.37;;;12.10;99.90;;;;;;6282456;22;20202;-90
2022/05/24 14:49:45;;;;;;;3.93;1.20;;;12.10;99.90;;;;;;6280834;22;20180;-90
2022/05/24 14:52:19;;;;;;;5.27;1.30;;;12.10;99.90;;;;;;6282520;22;20254;-90
2022/05/24 14:54:51;;;;;;;6.07;1.40;;;12.30;99.90;;;;;;6286700;22;20617;-90
2022/05/24 14:57:23;;;;;;;3.73;1.47;;;12.40;99.90;;;;;;6284126;22;20163;-91
2022/05/24 14:59:54;;;;;;;7.70;1.70;;;12.30;99.90;;;;;;6284237;22;20221;-90